Time;durP1;ratioP1;P1;durP2;ratioP2;P2;SDS_P1;SDS_P2;PMS_P1;PMS_P2;Temp;Humidity;BMP_temperature;BMP_pressure;BME280_temperature;BME280_humidity;BME280_pressure;Samples;Min_cycle;Max_cycle;Signal;HPM_P1;HPM_P2
2023/04/16 00:03:31;;;;;;;1.97;1.07;;;;;;;16.85;52.03;96657.63;10336863;28;20301;-33
2023/04/16 00:08:31;;;;;;;1.48;0.70;;;;;;;16.90;56.58;96650.91;10329137;28;20072;-33
2023/04/16 00:13:32;;;;;;;2.67;1.40;;;;;;;16.96;56.83;96655.97;10338451;28;20053;-32
2023/04/16 00:18:32;;;;;;;2.70;1.02;;;;;;;16.92;55.55;96659.34;10344535;28;20036;-33
2023/04/16 00:23:32;;;;;;;2.37;1.30;;;;;;;16.85;55.66;96657.63;10328625;28;20034;-33
2023/04/16 00:28:33;;;;;;;2.37;0.87;;;;;;;16.85;53.60;96657.63;10328365;28;20044;-32
2023/04/16 00:33:33;;;;;;;3.17;0.97;;;;;;;16.84;53.72;96660.97;10343537;28;20852;-33
2023/04/16 00:38:34;;;;;;;1.60;1.20;;;;;;;16.83;53.82;96664.34;10328117;28;20030;-32
2023/04/16 00:43:34;;;;;;;1.85;0.80;;;;;;;16.80;53.32;96669.38;10335730;28;20034;-32
2023/04/16 00:48:37;;;;;;;2.57;1.20;;;;;;;16.83;52.79;96664.34;10327926;28;20100;-32
2023/04/16 00:53:37;;;;;;;1.65;1.10;;;;;;;16.81;53.43;96671.09;10326910;28;20292;-32
2023/04/16 00:58:39;;;;;;;0.98;0.68;;;;;;;16.80;53.12;96660.13;10325747;28;20042;-33
2023/04/16 01:03:43;;;;;;;1.08;0.82;;;;;;;16.83;53.11;96671.94;10327334;28;20030;-32
2023/04/16 01:08:44;;;;;;;1.23;0.90;;;;;;;16.81;53.87;96671.09;10341775;28;20077;-32
2023/04/16 01:13:44;;;;;;;1.88;0.90;;;;;;;16.80;53.22;96674.44;10326739;28;20099;-32
2023/04/16 01:18:45;;;;;;;2.05;0.80;;;;;;;16.81;53.06;96671.09;10326804;28;20397;-32
2023/04/16 01:23:45;;;;;;;1.77;1.03;;;;;;;16.88;56.72;96683.75;10326670;28;20022;-32
2023/04/16 01:28:46;;;;;;;4.18;1.10;;;;;;;16.93;56.88;96676.19;10334719;28;20297;-32
2023/04/16 01:33:46;;;;;;;2.63;0.97;;;;;;;16.87;55.11;96681.22;10335084;28;20169;-32
2023/04/16 01:38:47;;;;;;;1.20;0.80;;;;;;;16.78;55.35;96681.16;10336570;28;20505;-33
2023/04/16 01:43:47;;;;;;;1.80;0.80;;;;;;;16.79;54.43;96677.78;10342897;28;20289;-32
2023/04/16 01:48:47;;;;;;;1.00;0.83;;;;;;;16.78;54.41;96678.63;10334277;28;20130;-32
2023/04/16 01:53:49;;;;;;;1.97;0.90;;;;;;;16.79;54.88;96685.38;10348390;28;20039;-33
2023/04/16 01:58:49;;;;;;;1.50;1.05;;;;;;;16.78;54.28;96683.69;10332730;28;20049;-32
2023/04/16 02:03:52;;;;;;;2.00;0.90;;;;;;;16.79;53.74;96688.78;10332146;28;20108;-32
2023/04/16 02:08:53;;;;;;;2.22;1.30;;;;;;;16.79;53.40;96685.38;10332311;28;20171;-33
2023/04/16 02:13:53;;;;;;;1.65;0.70;;;;;;;16.78;53.13;96681.16;10332232;28;20041;-33
2023/04/16 02:18:54;;;;;;;1.75;1.40;;;;;;;16.80;53.35;96684.53;10332149;28;20096;-32
2023/04/16 02:23:56;;;;;;;1.02;0.70;;;;;;;16.80;52.68;96687.06;10333136;28;20113;-32
2023/04/16 02:29:01;;;;;;;1.73;1.05;;;;;;;16.80;52.63;96697.19;10331979;28;20042;-32
2023/04/16 02:34:09;;;;;;;1.63;1.00;;;;;;;16.82;53.46;96698.88;10336483;28;20447;-32
2023/04/16 02:39:10;;;;;;;1.73;1.00;;;;;;;16.89;56.62;96697.25;10342807;28;20088;-33
2023/04/16 02:44:10;;;;;;;5.35;1.00;;;;;;;16.91;56.45;96700.63;10331225;28;20053;-32
2023/04/16 02:49:10;;;;;;;2.50;1.17;;;;;;;16.84;54.14;96691.31;10332057;28;20420;-32
2023/04/16 02:54:11;;;;;;;1.93;0.90;;;;;;;16.81;53.93;96688.78;10331423;28;20489;-33
2023/04/16 02:59:11;;;;;;;1.37;0.70;;;;;;;16.82;53.54;96695.53;10332077;28;20034;-33
2023/04/16 03:04:12;;;;;;;2.17;0.73;;;;;;;16.81;53.17;96686.25;10330529;28;20026;-33
2023/04/16 03:09:12;;;;;;;3.17;0.85;;;;;;;16.82;52.53;96687.94;10329963;28;20038;-33
2023/04/16 03:14:13;;;;;;;1.10;0.73;;;;;;;16.81;53.47;96686.25;10338860;28;20026;-33
2023/04/16 03:19:13;;;;;;;0.90;0.70;;;;;;;16.79;53.69;96688.78;10331870;28;20113;-32
2023/04/16 03:24:13;;;;;;;2.03;0.90;;;;;;;16.80;52.88;96687.06;10330907;28;20030;-33
2023/04/16 03:29:14;;;;;;;1.30;0.73;;;;;;;16.78;52.63;96683.69;10346919;28;20034;-33
2023/04/16 03:34:17;;;;;;;1.52;0.70;;;;;;;16.84;51.63;96691.31;10329009;28;20344;-32
2023/04/16 03:39:18;;;;;;;1.50;1.08;;;;;;;16.85;52.75;96693.00;10335741;28;20133;-32
2023/04/16 03:44:18;;;;;;;2.45;1.20;;;;;;;16.87;54.67;96698.91;10331174;28;20113;-32
2023/04/16 03:49:19;;;;;;;1.90;1.10;;;;;;;16.91;55.87;96709.06;10328772;28;20060;-32
2023/04/16 03:54:20;;;;;;;1.80;1.10;;;;;;;16.92;56.01;96698.09;10330216;28;20066;-33
2023/04/16 03:59:26;;;;;;;1.95;1.10;;;;;;;16.95;55.60;96709.91;10336081;28;20026;-32
2023/04/16 04:04:26;;;;;;;2.17;0.90;;;;;;;16.91;55.04;96703.16;10327825;28;20057;-33
2023/04/16 04:09:27;;;;;;;1.98;0.90;;;;;;;16.89;55.57;96699.78;10331037;28;20459;-33
2023/04/16 04:14:27;;;;;;;2.60;1.20;;;;;;;16.86;55.50;96699.75;10328621;28;20026;-32
2023/04/16 04:19:27;;;;;;;1.57;0.80;;;;;;;16.84;54.81;96706.50;10335729;28;20281;-32
2023/04/16 04:24:28;;;;;;;2.05;1.08;;;;;;;16.82;54.16;96711.53;10336768;28;20788;-32
2023/04/16 04:29:29;;;;;;;2.92;1.02;;;;;;;16.81;54.13;96716.59;10334473;28;20037;-32
2023/04/16 04:34:30;;;;;;;1.80;0.90;;;;;;;16.80;54.12;96719.94;10328717;28;20030;-33
2023/04/16 04:39:32;;;;;;;0.95;0.63;;;;;;;16.81;53.38;96714.06;10334763;28;20504;-32
2023/04/16 04:44:32;;;;;;;3.45;0.80;;;;;;;16.82;53.33;96718.28;10331227;28;20034;-32
2023/04/16 04:49:33;;;;;;;1.52;0.80;;;;;;;16.81;53.88;96729.25;10329610;28;20038;-32
2023/04/16 04:54:33;;;;;;;1.93;0.67;;;;;;;16.81;53.70;96732.59;10336032;28;20616;-33
2023/04/16 04:59:34;;;;;;;2.83;0.60;;;;;;;16.81;53.63;96734.28;10342538;28;20286;-33
2023/04/16 05:04:35;;;;;;;1.45;0.90;;;;;;;16.85;55.93;96741.06;10333190;28;20026;-31
2023/04/16 05:09:35;;;;;;;0.70;0.70;;;;;;;16.89;56.09;96738.56;10327264;28;20036;-32
2023/04/16 05:14:35;;;;;;;1.83;1.30;;;;;;;16.91;55.78;96746.97;10335643;28;20030;-33
2023/04/16 05:19:36;;;;;;;1.77;0.90;;;;;;;16.89;54.97;96746.13;10326469;28;20045;-32
2023/04/16 05:24:36;;;;;;;1.40;0.90;;;;;;;16.89;55.22;96752.91;10335233;28;20030;-32
2023/04/16 05:29:36;;;;;;;2.37;0.90;;;;;;;16.89;55.08;96752.91;10334348;28;20422;-32
2023/04/16 05:34:37;;;;;;;1.73;0.60;;;;;;;16.86;54.54;96752.84;10326726;28;20492;-32
2023/04/16 05:39:37;;;;;;;1.60;0.80;;;;;;;16.88;54.13;96758.75;10326668;28;20284;-33
2023/04/16 05:44:40;;;;;;;1.83;0.80;;;;;;;16.89;54.69;96768.06;10326862;28;20030;-33
2023/04/16 05:49:40;;;;;;;1.20;0.88;;;;;;;16.89;54.70;96770.59;10326166;28;20042;-33
2023/04/16 05:54:40;;;;;;;1.73;0.93;;;;;;;16.90;54.55;96777.34;10326675;28;20042;-33
2023/04/16 05:59:41;;;;;;;1.53;0.73;;;;;;;16.90;55.15;96787.47;10327054;28;20034;-32
2023/04/16 06:04:41;;;;;;;0.90;0.70;;;;;;;16.89;54.92;96786.59;10325949;28;20875;-32
2023/04/16 06:09:41;;;;;;;1.23;0.83;;;;;;;16.90;54.53;96790.81;10326455;28;20378;-32
2023/04/16 06:14:42;;;;;;;3.03;1.67;;;;;;;16.91;53.75;96792.50;10326348;28;20039;-33
2023/04/16 06:19:42;;;;;;;1.20;0.90;;;;;;;16.93;54.79;96800.97;10327448;28;20497;-33
2023/04/16 06:24:43;;;;;;;1.97;0.90;;;;;;;16.96;54.91;96802.66;10325940;28;20039;-32
2023/04/16 06:29:43;;;;;;;1.13;0.75;;;;;;;16.95;54.18;96804.34;10327849;28;20044;-32
2023/04/16 06:34:43;;;;;;;0.97;0.70;;;;;;;16.92;54.00;96806.84;10340969;28;20041;-33
2023/04/16 06:39:44;;;;;;;2.00;1.00;;;;;;;16.93;54.48;96810.22;10332731;28;20133;-33
2023/04/16 06:44:45;;;;;;;0.90;0.70;;;;;;;16.92;53.83;96813.59;10332389;28;20030;-33
2023/04/16 06:49:45;;;;;;;1.77;1.00;;;;;;;16.90;53.77;96818.63;10332189;28;20042;-32
2023/04/16 06:54:47;;;;;;;1.17;0.90;;;;;;;16.91;53.80;96834.66;10332269;28;20097;-33
2023/04/16 06:59:47;;;;;;;1.05;0.80;;;;;;;16.91;54.14;96824.53;10340198;28;20038;-32
2023/04/16 07:04:47;;;;;;;3.10;1.83;;;;;;;16.89;54.77;96826.22;10331773;28;20457;-33
2023/04/16 07:09:48;;;;;;;2.43;0.87;;;;;;;16.86;54.55;96831.25;10331711;28;20042;-33
2023/04/16 07:14:48;;;;;;;2.40;1.43;;;;;;;16.88;54.76;96832.09;10417816;23;20056;-29
2023/04/16 07:19:50;;;;;;;2.83;1.00;;;;;;;16.87;55.09;96830.41;10406936;28;20045;-29
2023/04/16 07:24:50;;;;;;;2.53;0.80;;;;;;;16.88;55.17;96834.63;10374305;28;20109;-28
2023/04/16 07:29:51;;;;;;;2.17;0.83;;;;;;;16.87;55.56;96822.81;10397214;28;20047;-28
2023/04/16 07:34:51;;;;;;;1.13;1.00;;;;;;;16.92;55.45;96826.25;10367433;28;20284;-28
2023/04/16 07:39:51;;;;;;;2.77;0.90;;;;;;;16.94;56.18;96839.72;10371806;28;20079;-28
2023/04/16 07:44:54;;;;;;;2.57;1.10;;;;;;;16.94;55.52;96842.25;10453742;22;21211;-30
2023/04/16 07:49:54;;;;;;;5.75;1.75;;;;;;;16.71;55.73;96843.75;10384237;28;20292;-30
2023/04/16 07:54:55;;;;;;;3.97;1.67;;;;;;;16.76;56.10;96844.66;10387643;28;20053;-30
2023/04/16 07:59:55;;;;;;;9.13;1.10;;;;;;;16.79;55.33;96842.13;10387507;28;20112;-29
2023/04/16 08:04:55;;;;;;;4.33;1.50;;;;;;;16.86;55.66;96851.47;10397820;28;20033;-30
2023/04/16 08:09:55;;;;;;;4.23;2.10;;;;;;;16.87;55.98;96863.28;10411067;28;20049;-29
2023/04/16 08:14:56;;;;;;;3.70;1.73;;;;;;;16.87;56.21;96863.28;10394265;28;20033;-29
2023/04/16 08:19:56;;;;;;;2.60;1.57;;;;;;;16.87;56.22;96863.28;10417385;22;20049;-29
2023/04/16 08:24:56;;;;;;;3.23;1.30;;;;;;;16.85;56.16;96872.53;10407134;28;20064;-30
2023/04/16 08:29:57;;;;;;;3.60;1.60;;;;;;;16.81;54.82;96884.28;10399807;28;20128;-29
2023/04/16 08:34:58;;;;;;;2.40;1.23;;;;;;;16.86;56.32;96884.34;10368811;28;20045;-29
2023/04/16 08:39:58;;;;;;;2.47;0.95;;;;;;;16.81;53.63;96883.47;10363121;28;20560;-29
2023/04/16 08:45:14;;;;;;;2.20;1.13;;;;;;;16.88;55.33;96893.63;10365062;28;20034;-30
2023/04/16 08:50:17;;;;;;;6.07;1.17;;;;;;;16.93;56.81;96899.59;10357736;28;20330;-29
2023/04/16 08:55:21;;;;;;;3.35;1.27;;;;;;;16.93;56.92;96899.59;10407783;22;20549;-26
2023/04/16 09:00:22;;;;;;;14.48;2.28;;;;;;;16.95;55.89;96905.50;10293279;28;20081;-24
2023/04/16 09:05:24;;;;;;;2.80;1.23;;;;;;;16.95;56.60;96902.13;10299321;28;20038;-25
2023/04/16 09:10:26;;;;;;;3.58;1.10;;;;;;;16.95;56.59;96908.03;10339011;28;20444;-25
2023/04/16 09:15:26;;;;;;;3.25;1.65;;;;;;;16.94;56.90;96900.44;10338316;28;20026;-25
2023/04/16 09:20:27;;;;;;;8.85;1.60;;;;;;;16.95;56.84;96908.03;10321732;28;20041;-25
2023/04/16 09:25:32;;;;;;;2.70;1.40;;;;;;;16.94;53.43;96911.41;10318290;28;20562;-24
2023/04/16 09:30:33;;;;;;;4.20;1.30;;;;;;;16.96;55.19;96918.97;10350630;23;20312;-28
2023/04/16 09:35:47;;;;;;;4.35;1.20;;;;;;;16.97;53.90;96920.69;10360427;28;20022;-28
2023/04/16 09:41:04;;;;;;;3.00;1.70;;;;;;;16.85;54.18;96925.63;10370252;28;20489;-28
2023/04/16 09:46:05;;;;;;;3.22;2.30;;;;;;;16.71;54.12;96921.28;10365047;28;20037;-28
2023/04/16 09:51:06;;;;;;;7.03;2.22;;;;;;;16.80;56.25;96924.72;10360575;28;20394;-28
2023/04/16 09:56:07;;;;;;;6.05;2.10;;;;;;;16.84;56.94;96921.41;10353624;28;20065;-28
2023/04/16 10:01:10;;;;;;;3.40;1.90;;;;;;;16.86;57.18;96924.78;10362394;28;20385;-28
2023/04/16 10:06:18;;;;;;;5.30;1.95;;;;;;;16.87;57.16;96936.59;10358847;28;20089;-28
2023/04/16 10:11:20;;;;;;;5.32;1.73;;;;;;;16.91;56.93;96940.88;10360499;28;20492;-28
2023/04/16 10:16:21;;;;;;;3.13;1.63;;;;;;;16.90;57.08;96939.19;10362555;28;20021;-28
2023/04/16 10:21:21;;;;;;;2.08;1.60;;;;;;;16.89;56.68;96940.03;10369598;28;20030;-29
2023/04/16 10:26:23;;;;;;;4.57;1.50;;;;;;;16.86;56.63;96948.41;10370823;28;20033;-28
2023/04/16 10:31:25;;;;;;;2.15;1.27;;;;;;;16.88;56.61;96953.47;10355448;28;20124;-28
2023/04/16 10:36:25;;;;;;;5.63;1.50;;;;;;;16.88;56.80;96950.94;10369381;28;20021;-28
2023/04/16 10:41:26;;;;;;;2.72;1.55;;;;;;;16.84;56.63;96950.06;10366307;28;20066;-28
2023/04/16 10:46:29;;;;;;;4.65;1.30;;;;;;;16.86;56.91;96952.59;10362948;28;20496;-28
2023/04/16 10:51:34;;;;;;;2.53;1.42;;;;;;;16.86;56.41;96958.53;10369153;28;20034;-28
2023/04/16 10:56:36;;;;;;;2.50;1.00;;;;;;;16.86;56.45;96955.13;10368517;28;20034;-28
2023/04/16 11:01:40;;;;;;;1.17;0.90;;;;;;;16.83;56.79;96952.59;10366222;28;20041;-28
2023/04/16 11:06:58;;;;;;;2.00;1.05;;;;;;;16.84;56.73;96952.59;10364341;28;20046;-27
2023/04/16 11:12:00;;;;;;;2.45;1.23;;;;;;;16.85;56.92;96950.91;10356410;28;20049;-28
2023/04/16 11:17:02;;;;;;;3.97;1.40;;;;;;;16.86;57.04;96960.19;10364941;28;20080;-28
2023/04/16 11:22:03;;;;;;;2.67;1.45;;;;;;;16.85;56.95;96955.97;10355973;28;20050;-28
2023/04/16 11:27:04;;;;;;;7.10;1.30;;;;;;;16.88;56.29;96956.84;10361564;28;20400;-28
2023/04/16 11:32:04;;;;;;;1.80;1.10;;;;;;;16.87;56.35;96956.81;10348544;28;20035;-28
2023/04/16 11:37:05;;;;;;;2.47;1.30;;;;;;;16.87;56.27;96950.09;10362411;28;20030;-28
2023/04/16 11:42:05;;;;;;;3.38;1.25;;;;;;;16.84;55.99;96959.34;10367837;28;20052;-28
2023/04/16 11:47:06;;;;;;;4.50;1.80;;;;;;;16.86;56.62;96957.66;10360070;28;20025;-28
2023/04/16 11:52:06;;;;;;;5.07;1.40;;;;;;;16.86;56.13;96963.59;10362124;28;20542;-28
2023/04/16 11:57:07;;;;;;;4.97;1.40;;;;;;;16.90;56.52;96961.94;10356933;28;20034;-29
2023/04/16 12:02:07;;;;;;;3.83;1.10;;;;;;;16.91;56.33;96967.00;10354824;28;20034;-28
2023/04/16 12:07:10;;;;;;;4.17;1.70;;;;;;;16.90;56.24;96972.88;10369701;28;20303;-28
2023/04/16 12:12:29;;;;;;;3.83;1.60;;;;;;;16.91;56.83;96971.22;10352161;28;20042;-28
2023/04/16 12:17:35;;;;;;;6.07;2.80;;;;;;;16.91;57.25;96983.88;10362553;28;20033;-28
2023/04/16 12:22:37;;;;;;;5.03;3.20;;;;;;;16.89;57.43;96983.00;10369684;28;20129;-28
2023/04/16 12:27:42;;;;;;;4.70;4.30;;;;;;;16.92;57.75;96980.50;10357953;28;20057;-28
2023/04/16 12:32:44;;;;;;;5.22;3.72;;;;;;;16.91;57.35;96988.91;10362000;28;20490;-28
2023/04/16 12:37:44;;;;;;;3.95;3.63;;;;;;;16.93;57.35;96988.09;10368512;28;20062;-28
2023/04/16 12:42:45;;;;;;;3.80;3.50;;;;;;;16.92;57.73;96996.50;10359796;28;20465;-28
2023/04/16 12:47:46;;;;;;;4.72;2.80;;;;;;;16.92;56.64;96998.19;10352537;28;20303;-28
2023/04/16 12:52:46;;;;;;;4.88;3.40;;;;;;;16.95;57.02;97004.13;10343810;28;20042;-28
2023/04/16 12:57:47;;;;;;;3.95;3.22;;;;;;;16.94;55.84;96999.06;10360617;28;20500;-28
2023/04/16 13:02:48;;;;;;;5.00;3.92;;;;;;;16.93;58.28;96995.69;10350337;28;20452;-28
2023/04/16 13:07:48;;;;;;;4.73;4.27;;;;;;;16.95;57.69;96988.09;10361464;28;20041;-28
2023/04/16 13:12:48;;;;;;;3.97;3.67;;;;;;;16.95;57.83;96986.44;10347380;28;20037;-28
2023/04/16 13:17:49;;;;;;;4.60;4.20;;;;;;;16.94;58.21;96991.47;10347740;28;20046;-28
2023/04/16 13:22:52;;;;;;;5.53;3.73;;;;;;;16.95;57.50;96983.03;10363542;28;20104;-28
2023/04/16 13:27:52;;;;;;;6.10;4.53;;;;;;;16.95;58.31;96985.56;10358308;28;20118;-28
2023/04/16 13:32:53;;;;;;;5.33;4.20;;;;;;;16.94;58.25;96982.22;10340388;28;20060;-28
2023/04/16 13:37:53;;;;;;;3.83;3.53;;;;;;;16.98;56.33;96983.94;10364297;28;20121;-28
2023/04/16 13:42:54;;;;;;;6.50;4.03;;;;;;;17.01;57.74;96989.03;10361651;28;20037;-28
2023/04/16 13:47:55;;;;;;;4.78;3.58;;;;;;;17.00;56.29;96992.38;10354391;28;20671;-28
2023/04/16 13:52:55;;;;;;;5.45;4.28;;;;;;;17.00;56.65;96987.31;10362142;28;20037;-28
2023/04/16 13:57:56;;;;;;;5.53;4.63;;;;;;;16.98;58.13;96988.16;10354228;28;20484;-28
2023/04/16 14:02:56;;;;;;;5.43;3.22;;;;;;;16.99;53.26;96982.25;10366973;28;20038;-28
2023/04/16 14:07:56;;;;;;;4.27;3.87;;;;;;;16.99;54.05;96985.63;10357938;28;20033;-28
2023/04/16 14:12:57;;;;;;;5.43;4.07;;;;;;;16.98;56.21;96983.09;10352120;28;20042;-28
2023/04/16 14:17:57;;;;;;;4.75;4.13;;;;;;;16.99;57.22;96984.78;10366909;28;20041;-28
2023/04/16 14:22:58;;;;;;;5.90;4.67;;;;;;;16.95;59.18;96980.50;10367188;28;20049;-28
2023/04/16 14:27:59;;;;;;;5.50;5.00;;;;;;;16.95;58.70;96988.09;10357460;28;20044;-28
2023/04/16 14:33:00;;;;;;;11.48;5.32;;;;;;;16.94;59.49;96987.28;10364586;28;20033;-28
2023/04/16 14:38:00;;;;;;;7.00;4.93;;;;;;;16.94;59.35;96979.69;10373460;28;20493;-28
2023/04/16 14:43:01;;;;;;;8.02;5.35;;;;;;;16.93;58.66;96980.53;10348414;28;20125;-28
2023/04/16 14:48:01;;;;;;;5.03;4.53;;;;;;;16.94;58.66;96978.81;10365077;28;20052;-27
2023/04/16 14:53:02;;;;;;;6.13;5.13;;;;;;;16.93;58.56;96978.00;10363966;28;20034;-28
2023/04/16 14:58:03;;;;;;;5.97;4.47;;;;;;;16.94;58.33;96981.34;10364256;28;20293;-28
2023/04/16 15:03:04;;;;;;;5.68;4.40;;;;;;;16.96;56.27;96983.06;10356371;28;20496;-28
2023/04/16 15:08:04;;;;;;;4.72;3.90;;;;;;;16.95;57.80;96983.91;10372005;28;20495;-27
2023/04/16 15:13:05;;;;;;;5.07;4.57;;;;;;;16.95;58.28;96990.63;10367662;28;20037;-28
2023/04/16 15:18:05;;;;;;;4.40;4.00;;;;;;;16.95;58.28;96993.16;10354958;28;20037;-28
2023/04/16 15:23:06;;;;;;;5.13;4.63;;;;;;;16.92;56.98;96988.09;10355072;28;20514;-28
2023/04/16 15:28:06;;;;;;;4.38;3.90;;;;;;;16.87;55.90;96995.63;10356310;28;20046;-28
2023/04/16 15:33:07;;;;;;;6.47;4.17;;;;;;;16.94;58.26;97001.59;10362185;28;20481;-28
2023/04/16 15:38:07;;;;;;;4.50;4.10;;;;;;;16.94;58.13;97001.59;10363413;28;20476;-28
2023/04/16 15:43:08;;;;;;;5.57;4.80;;;;;;;16.93;58.15;97004.94;10367347;28;20033;-28
2023/04/16 15:48:08;;;;;;;5.18;4.45;;;;;;;16.87;57.91;97004.88;10362296;28;20040;-28
2023/04/16 15:53:09;;;;;;;6.50;3.57;;;;;;;16.90;55.97;96999.88;10362171;28;20502;-28
2023/04/16 15:58:09;;;;;;;6.25;5.13;;;;;;;16.96;58.25;97013.41;10354009;28;20379;-28
2023/04/16 16:03:10;;;;;;;9.02;6.13;;;;;;;16.95;58.88;97008.34;10361765;28;20493;-27
2023/04/16 16:08:10;;;;;;;7.47;5.55;;;;;;;16.95;58.80;97005.81;10362089;28;20499;-28
2023/04/16 16:13:14;;;;;;;8.20;5.80;;;;;;;16.98;59.05;97013.44;10339269;28;20062;-28
2023/04/16 16:18:15;;;;;;;11.18;5.68;;;;;;;16.99;57.64;97012.59;10337069;28;20080;-28
2023/04/16 16:23:15;;;;;;;7.18;5.65;;;;;;;16.97;58.25;97012.59;10369228;28;20070;-28
2023/04/16 16:28:16;;;;;;;6.77;5.03;;;;;;;16.97;57.79;97014.25;10364501;28;20036;-28
2023/04/16 16:33:16;;;;;;;8.90;6.37;;;;;;;16.96;57.98;97010.91;10358876;28;20117;-28
2023/04/16 16:38:16;;;;;;;8.63;5.90;;;;;;;16.95;57.96;97014.25;10336907;28;20180;-28
2023/04/16 16:43:17;;;;;;;9.32;5.75;;;;;;;16.94;58.34;97012.56;10351963;28;20492;-28
2023/04/16 16:48:17;;;;;;;5.13;4.60;;;;;;;16.84;54.38;97014.97;10354748;28;20042;-29
2023/04/16 16:53:17;;;;;;;6.77;5.20;;;;;;;16.97;55.42;97016.78;10357338;28;20280;-28
2023/04/16 16:58:18;;;;;;;10.47;6.20;;;;;;;17.00;56.72;97016.84;10359377;28;20492;-28
2023/04/16 17:03:18;;;;;;;10.20;8.03;;;;;;;16.99;58.04;97005.84;10349317;28;20056;-28
2023/04/16 17:08:19;;;;;;;11.83;6.57;;;;;;;17.01;55.60;97013.47;10367440;28;20025;-28
2023/04/16 17:13:19;;;;;;;11.57;7.90;;;;;;;17.03;57.11;97026.97;10361836;28;20438;-28
2023/04/16 17:18:19;;;;;;;13.25;8.35;;;;;;;17.07;57.15;97023.66;10366195;28;20099;-28
2023/04/16 17:23:20;;;;;;;12.63;7.90;;;;;;;17.10;58.25;97023.69;10363873;28;20504;-28
2023/04/16 17:28:20;;;;;;;15.18;7.43;;;;;;;17.06;57.65;97027.03;10361051;28;20030;-28
2023/04/16 17:33:20;;;;;;;16.60;7.33;;;;;;;17.06;56.19;97027.84;10354980;28;20018;-28
2023/04/16 17:38:21;;;;;;;12.23;6.00;;;;;;;17.04;57.99;97028.66;10366944;28;20033;-28
2023/04/16 17:43:22;;;;;;;12.20;6.43;;;;;;;17.02;58.46;97031.19;10354604;28;20664;-28
2023/04/16 17:48:23;;;;;;;9.68;5.88;;;;;;;17.02;57.98;97042.97;10349323;28;20297;-28
2023/04/16 17:53:23;;;;;;;9.77;5.47;;;;;;;17.01;57.58;97038.75;10358253;28;20044;-28
2023/04/16 17:58:25;;;;;;;8.40;5.73;;;;;;;17.01;56.67;97043.81;10351811;28;20080;-28
2023/04/16 18:03:25;;;;;;;9.15;4.75;;;;;;;16.98;57.14;97047.16;10345122;28;20524;-28
2023/04/16 18:08:26;;;;;;;9.98;5.70;;;;;;;16.94;58.45;97040.38;10350314;28;20046;-28
2023/04/16 18:13:27;;;;;;;9.52;6.50;;;;;;;16.95;57.88;97047.13;10345902;28;20038;-28
2023/04/16 18:18:27;;;;;;;9.23;5.17;;;;;;;16.94;57.03;97049.63;10350624;28;20034;-28
2023/04/16 18:23:30;;;;;;;8.67;6.53;;;;;;;16.93;59.42;97050.47;10354554;28;20084;-28
2023/04/16 18:28:30;;;;;;;8.80;6.22;;;;;;;16.94;59.42;97053.03;10365729;28;20296;-28
2023/04/16 18:33:31;;;;;;;12.60;7.07;;;;;;;16.97;59.01;97052.19;10354753;28;20496;-28
2023/04/16 18:38:31;;;;;;;10.90;5.78;;;;;;;16.95;58.75;97054.72;10355641;28;20346;-28
2023/04/16 18:43:31;;;;;;;8.38;5.80;;;;;;;16.96;59.11;97060.59;10347574;28;20042;-28
2023/04/16 18:48:32;;;;;;;8.63;5.60;;;;;;;16.94;58.73;97062.28;10346096;28;20042;-28
2023/04/16 18:53:33;;;;;;;8.53;5.97;;;;;;;16.92;58.67;97074.06;10346305;28;20088;-28
2023/04/16 18:58:33;;;;;;;8.68;4.95;;;;;;;16.93;58.29;97065.66;10343691;28;20070;-28
2023/04/16 19:03:33;;;;;;;11.13;6.57;;;;;;;16.91;58.48;97077.44;10352516;28;20511;-28
2023/04/16 19:08:34;;;;;;;7.33;5.23;;;;;;;16.92;57.94;97074.06;10351647;28;20046;-28
2023/04/16 19:13:34;;;;;;;8.23;5.37;;;;;;;16.92;58.88;97074.06;10354750;28;20037;-28
2023/04/16 19:18:34;;;;;;;11.15;7.35;;;;;;;16.90;58.45;97078.28;10351076;28;20038;-28
2023/04/16 19:23:35;;;;;;;8.60;5.67;;;;;;;16.90;58.58;97080.78;10363492;28;20091;-28
2023/04/16 19:28:37;;;;;;;5.85;4.07;;;;;;;16.90;58.46;97079.09;10350273;28;20725;-28
2023/04/16 19:33:37;;;;;;;5.60;4.65;;;;;;;16.89;58.46;97079.09;10348271;28;20030;-28
2023/04/16 19:38:38;;;;;;;8.30;5.50;;;;;;;16.90;59.27;97086.69;10350222;28;20030;-28
2023/04/16 19:43:38;;;;;;;9.47;5.07;;;;;;;16.94;58.76;97095.16;10344565;28;20042;-28
2023/04/16 19:48:38;;;;;;;7.37;5.70;;;;;;;16.93;58.29;97080.81;10349138;28;20045;-28
2023/04/16 19:53:39;;;;;;;6.80;4.27;;;;;;;16.93;58.40;97086.75;10347173;28;20031;-28
2023/04/16 19:58:39;;;;;;;7.28;5.22;;;;;;;16.93;58.56;97085.88;10348594;28;20431;-28
2023/04/16 20:03:40;;;;;;;6.73;4.50;;;;;;;16.92;58.51;97077.44;10347757;28;20038;-28
2023/04/16 20:08:43;;;;;;;7.50;4.83;;;;;;;16.91;58.28;97083.31;10357521;28;20038;-28
2023/04/16 20:13:47;;;;;;;6.65;4.97;;;;;;;16.90;57.96;97090.91;10352170;28;20289;-28
2023/04/16 20:18:47;;;;;;;6.68;4.50;;;;;;;16.94;56.46;97079.97;10358284;28;20034;-28
2023/04/16 20:23:48;;;;;;;8.05;4.80;;;;;;;16.95;57.72;97076.63;10357224;28;20404;-28
2023/04/16 20:28:48;;;;;;;6.93;4.87;;;;;;;16.95;56.71;97069.91;10356627;28;20033;-27
2023/04/16 20:33:49;;;;;;;6.17;4.77;;;;;;;16.97;58.70;97069.88;10336222;28;20109;-28
2023/04/16 20:38:50;;;;;;;13.15;5.28;;;;;;;16.95;57.74;97069.91;10348573;28;20045;-28
2023/04/16 20:43:51;;;;;;;7.45;4.47;;;;;;;16.97;58.54;97053.06;10347003;28;20034;-28
2023/04/16 20:48:54;;;;;;;9.43;5.55;;;;;;;16.96;59.11;97055.56;10340330;28;20038;-28
2023/04/16 20:53:55;;;;;;;9.57;5.57;;;;;;;16.98;59.20;97046.31;10352735;28;20036;-28
2023/04/16 20:58:58;;;;;;;5.55;4.03;;;;;;;17.01;58.87;97053.94;10359978;28;20029;-28
2023/04/16 21:03:58;;;;;;;6.88;5.85;;;;;;;16.99;58.98;97046.31;10350110;28;20038;-28
2023/04/16 21:08:59;;;;;;;7.77;4.20;;;;;;;17.00;58.70;97049.72;10354102;28;20408;-30
2023/04/16 21:13:59;;;;;;;6.85;4.55;;;;;;;16.98;58.45;97043.78;10355896;28;20292;-28
2023/04/16 21:19:00;;;;;;;14.07;5.68;;;;;;;16.96;58.59;97040.38;10343499;28;20037;-28
2023/04/16 21:24:00;;;;;;;7.00;4.40;;;;;;;16.95;58.19;97038.69;10347454;28;20041;-28
2023/04/16 21:29:01;;;;;;;7.07;4.40;;;;;;;16.97;59.01;97042.94;10347201;28;20662;-28
2023/04/16 21:34:01;;;;;;;8.30;4.57;;;;;;;16.95;58.91;97038.69;10365025;28;20041;-28
2023/04/16 21:39:02;;;;;;;8.30;4.70;;;;;;;16.95;58.44;97046.28;10354633;28;20038;-28
2023/04/16 21:44:02;;;;;;;12.75;5.93;;;;;;;16.95;58.88;97042.06;10343063;28;20304;-28
2023/04/16 21:49:02;;;;;;;15.70;4.97;;;;;;;16.95;58.93;97033.63;10361791;28;20033;-28
2023/04/16 21:54:03;;;;;;;7.15;4.63;;;;;;;16.95;58.83;97036.16;10347895;28;20092;-28
2023/04/16 21:59:03;;;;;;;6.57;4.07;;;;;;;16.95;58.59;97033.63;10348854;28;20550;-28
2023/04/16 22:04:04;;;;;;;6.30;4.77;;;;;;;16.98;58.90;97033.69;10364084;28;20436;-28
2023/04/16 22:09:05;;;;;;;10.00;4.95;;;;;;;16.96;58.87;97021.00;10375177;28;20105;-28
2023/04/16 22:14:07;;;;;;;7.75;4.68;;;;;;;16.95;58.85;97021.84;10362459;28;20026;-28
2023/04/16 22:19:07;;;;;;;6.65;4.32;;;;;;;16.94;58.72;97022.69;10355401;28;20041;-28
2023/04/16 22:24:07;;;;;;;10.43;4.43;;;;;;;16.94;59.03;97021.81;10363161;28;20037;-28
2023/04/16 22:29:08;;;;;;;7.10;4.60;;;;;;;16.93;58.69;97018.47;10363495;28;20034;-28
2023/04/16 22:34:08;;;;;;;8.57;4.30;;;;;;;16.94;59.07;97012.56;10354707;28;20057;-28
2023/04/16 22:39:08;;;;;;;7.33;4.50;;;;;;;16.93;58.95;97010.88;10373599;28;20037;-28
2023/04/16 22:44:09;;;;;;;8.70;4.13;;;;;;;16.93;58.94;97007.47;10352062;28;20038;-28
2023/04/16 22:49:09;;;;;;;6.87;4.53;;;;;;;16.91;58.49;97017.56;10366997;28;20427;-28
2023/04/16 22:54:10;;;;;;;10.90;4.17;;;;;;;16.94;58.89;97009.16;10352539;28;20300;-28
2023/04/16 22:59:10;;;;;;;5.55;3.90;;;;;;;16.92;59.06;97003.25;10365472;28;20034;-28
2023/04/16 23:04:11;;;;;;;9.57;3.90;;;;;;;16.92;58.74;97010.84;10369907;28;20052;-28
2023/04/16 23:09:11;;;;;;;10.03;4.20;;;;;;;16.92;58.73;97010.84;10364037;28;20496;-28
2023/04/16 23:14:12;;;;;;;6.73;3.60;;;;;;;16.92;59.06;97008.31;10351783;28;20122;-28
2023/04/16 23:19:13;;;;;;;6.43;3.70;;;;;;;16.95;59.34;97008.34;10366055;28;20041;-28